| time (UTC) | temp F | wind direction | speed MPH | gust MPH | rain 1hr in | rain 24hr in | rain mn in | humidity % | barometer mb |
| 20260502215007 | 63 | 236 | 5.0 | 10.0 | 0.00 | 0.00 | 0.00 | 33 | 1009.0 |
| 20260502214507 | 63 | 243 | 5.0 | 11.0 | 0.00 | 0.00 | 0.00 | 32 | 1009.0 |
| 20260502214002 | 63 | 212 | 6.0 | 17.0 | 0.00 | 0.00 | 0.00 | 33 | 1009.1 |
| 20260502213503 | 63 | 219 | 10.0 | 16.0 | 0.00 | 0.00 | 0.00 | 32 | 1009.1 |
| 20260502213010 | 63 | 228 | 2.0 | 13.0 | 0.00 | 0.00 | 0.00 | 34 | 1009.1 |
| 20260502212505 | 63 | 232 | 7.0 | 14.0 | 0.00 | 0.00 | 0.00 | 31 | 1009.2 |
| 20260502212003 | 64 | 305 | 8.0 | 16.0 | 0.00 | 0.00 | 0.00 | 31 | 1009.2 |
| 20260502211510 | 64 | 277 | 7.0 | 16.0 | 0.00 | 0.00 | 0.00 | 30 | 1009.4 |
| 20260502211004 | 65 | 268 | 7.0 | 14.0 | 0.00 | 0.00 | 0.00 | 31 | 1009.5 |
| 20260502210503 | 65 | 275 | 6.0 | 12.0 | 0.00 | 0.00 | 0.00 | 31 | 1009.6 |
| 20260502210013 | 65 | 249 | 6.0 | 12.0 | 0.00 | 0.00 | 0.00 | 30 | 1009.6 |
| 20260502205503 | 65 | 236 | 6.0 | 10.0 | 0.00 | 0.00 | 0.00 | 29 | 1009.7 |
| 20260502205004 | 64 | 281 | 1.0 | 9.0 | 0.00 | 0.00 | 0.00 | 32 | 1009.7 |
| 20260502204520 | 64 | 195 | 4.0 | 11.0 | 0.00 | 0.00 | 0.00 | 31 | 1009.6 |
| 20260502204003 | 64 | 243 | 5.0 | 11.0 | 0.00 | 0.00 | 0.00 | 30 | 1009.7 |
| 20260502203504 | 65 | 272 | 4.0 | 15.0 | 0.00 | 0.00 | 0.00 | 29 | 1009.8 |
| 20260502203017 | 65 | 225 | 5.0 | 16.0 | 0.00 | 0.00 | 0.00 | 30 | 1009.9 |
| 20260502202503 | 65 | 223 | 9.0 | 16.0 | 0.00 | 0.00 | 0.00 | 28 | 1009.9 |
| 20260502202006 | 66 | 214 | 4.0 | 15.0 | 0.00 | 0.00 | 0.00 | 31 | 1010.0 |
| 20260502201517 | 65 | 230 | 4.0 | 13.0 | 0.00 | 0.00 | 0.00 | 31 | 1010.3 |
| 20260502201003 | 64 | 217 | 4.0 | 16.0 | 0.00 | 0.00 | 0.00 | 33 | 1010.2 |
| 20260502200505 | 64 | 248 | 7.0 | 16.0 | 0.00 | 0.00 | 0.00 | 31 | 1010.5 |
| 20260502200018 | 64 | 286 | 7.0 | 15.0 | 0.00 | 0.00 | 0.00 | 31 | 1010.4 |
| 20260502195505 | 63 | 160 | 4.0 | 15.0 | 0.00 | 0.00 | 0.00 | 32 | 1010.5 |
| 20260502195009 | 63 | 269 | 7.0 | 15.0 | 0.00 | 0.00 | 0.00 | 31 | 1010.6 |
| 20260502194516 | 64 | 152 | 9.0 | 16.0 | 0.00 | 0.00 | 0.00 | 30 | 1010.7 |
| 20260502194001 | 64 | 271 | 8.0 | 16.0 | 0.00 | 0.00 | 0.00 | 30 | 1010.7 |
| 20260502193507 | 63 | 193 | 4.0 | 15.0 | 0.00 | 0.00 | 0.00 | 30 | 1010.7 |
| 20260502193003 | 63 | 194 | 1.0 | 16.0 | 0.00 | 0.00 | 0.00 | 31 | 1010.8 |
| 20260502192506 | 64 | 213 | 7.0 | 16.0 | 0.00 | 0.00 | 0.00 | 29 | 1011.0 |
| 20260502192010 | 65 | 232 | 5.0 | 15.0 | 0.00 | 0.00 | 0.00 | 30 | 1011.0 |
| 20260502191511 | 64 | 192 | 8.0 | 15.0 | 0.00 | 0.00 | 0.00 | 31 | 1011.2 |
| 20260502191004 | 63 | 239 | 4.0 | 14.0 | 0.00 | 0.00 | 0.00 | 34 | 1011.3 |
| 20260502190509 | 62 | 184 | 7.0 | 14.0 | 0.00 | 0.00 | 0.00 | 31 | 1011.4 |
| 20260502190006 | 62 | 235 | 6.0 | 14.0 | 0.00 | 0.00 | 0.00 | 32 | 1011.4 |
| 20260502185507 | 62 | 184 | 2.0 | 17.0 | 0.00 | 0.00 | 0.00 | 32 | 1011.6 |
| 20260502185007 | 62 | 242 | 4.0 | 17.0 | 0.00 | 0.00 | 0.00 | 31 | 1011.7 |
| 20260502184505 | 63 | 236 | 7.0 | 14.0 | 0.00 | 0.00 | 0.00 | 31 | 1011.7 |
| 20260502184004 | 62 | 184 | 6.0 | 13.0 | 0.00 | 0.00 | 0.00 | 33 | 1011.9 |
| 20260502183507 | 62 | 245 | 5.0 | 13.0 | 0.00 | 0.00 | 0.00 | 31 | 1011.9 |
| 20260502183005 | 62 | 239 | 4.0 | 12.0 | 0.00 | 0.00 | 0.00 | 31 | 1012.1 |
| 20260502182504 | 62 | 195 | 5.0 | 12.0 | 0.00 | 0.00 | 0.00 | 31 | 1012.1 |
| 20260502182010 | 62 | 186 | 6.0 | 12.0 | 0.00 | 0.00 | 0.00 | 31 | 1012.2 |
| 20260502181504 | 62 | 230 | 4.0 | 8.0 | 0.00 | 0.00 | 0.00 | 30 | 1012.3 |
| 20260502181006 | 61 | 202 | 5.0 | 9.0 | 0.00 | 0.00 | 0.00 | 32 | 1012.4 |
| 20260502180506 | 61 | 155 | 3.0 | 14.0 | 0.00 | 0.00 | 0.00 | 31 | 1012.5 |
| 20260502170514 | 59 | 170 | 6.0 | 14.0 | 0.00 | 0.00 | 0.00 | 32 | 1013.5 |
| 20260502164011 | 58 | 235 | 4.0 | 10.0 | 0.00 | 0.00 | 0.00 | 33 | 1014.1 |
| 20260502163511 | 57 | 174 | 5.0 | 10.0 | 0.00 | 0.00 | 0.00 | 33 | 1014.1 |
| 20260502163013 | 57 | 173 | 3.0 | 8.0 | 0.00 | 0.00 | 0.00 | 33 | 1014.2 |
| 20260502162512 | 57 | 194 | 5.0 | 14.0 | 0.00 | 0.00 | 0.00 | 33 | 1014.4 |
| 20260502162011 | 57 | 166 | 3.0 | 14.0 | 0.00 | 0.00 | 0.00 | 34 | 1014.4 |
| 20260502161508 | 57 | 225 | 3.0 | 10.0 | 0.00 | 0.00 | 0.00 | 32 | 1014.4 |
| 20260502161010 | 57 | 188 | 4.0 | 10.0 | 0.00 | 0.00 | 0.00 | 34 | 1014.4 |
| 20260502160502 | 56 | 159 | 3.0 | 8.0 | 0.00 | 0.00 | 0.00 | 34 | 1014.6 |
| 20260502152004 | 53 | 200 | 5.0 | 10.0 | 0.00 | 0.00 | 0.00 | 36 | 1015.5 |
| 20260502151522 | 53 | 225 | 4.0 | 10.0 | 0.00 | 0.00 | 0.00 | 37 | 1015.5 |
| 20260502151011 | 52 | 182 | 3.0 | 8.0 | 0.00 | 0.00 | 0.00 | 38 | 1015.6 |
| 20260502150504 | 52 | 236 | 4.0 | 12.0 | 0.00 | 0.00 | 0.00 | 37 | 1015.7 |
| 20260502130509 | 37 | 236 | 2.0 | 4.0 | 0.00 | 0.00 | 0.00 | 65 | 1016.5 |
| 20260502123503 | 32 | 24 | 0.0 | 0.0 | 0.00 | 0.00 | 0.00 | 80 | 1016.7 |
| 20260502123004 | 31 | 24 | 0.0 | 0.0 | 0.00 | 0.00 | 0.00 | 81 | 1016.7 |
| 20260502122504 | 30 | 24 | 0.0 | 0.0 | 0.00 | 0.00 | 0.00 | 82 | 1016.7 |
| 20260502122003 | 29 | 24 | 0.0 | 0.0 | 0.00 | 0.00 | 0.00 | 83 | 1016.6 |
| 20260502121506 | 28 | 24 | 0.0 | 0.0 | 0.00 | 0.00 | 0.00 | 85 | 1016.7 |
| 20260502121005 | 28 | 24 | 0.0 | 0.0 | 0.00 | 0.00 | 0.00 | 86 | 1016.6 |
| 20260502120503 | 27 | 24 | 0.0 | 0.0 | 0.00 | 0.00 | 0.00 | 86 | 1016.6 |
| 20260502115504 | 26 | 24 | 0.0 | 0.0 | 0.00 | 0.00 | 0.00 | 86 | 1016.7 |
| 20260502115002 | 26 | 24 | 0.0 | 0.0 | 0.00 | 0.00 | 0.00 | 86 | 1016.8 |
| 20260502114508 | 26 | 24 | 0.0 | 0.0 | 0.00 | 0.00 | 0.00 | 86 | 1016.9 |
| 20260502114004 | 26 | 24 | 0.0 | 0.0 | 0.00 | 0.00 | 0.00 | 86 | 1016.7 |
| 20260502113504 | 26 | 24 | 0.0 | 0.0 | 0.00 | 0.00 | 0.00 | 86 | 1016.7 |
| 20260502113005 | 25 | 24 | 0.0 | 0.0 | 0.00 | 0.00 | 0.00 | 86 | 1016.7 |
| 20260502112504 | 25 | 24 | 0.0 | 0.0 | 0.00 | 0.00 | 0.00 | 86 | 1016.8 |
| 20260502112003 | 25 | 24 | 0.0 | 0.0 | 0.00 | 0.00 | 0.00 | 86 | 1016.9 |
| 20260502111516 | 25 | 24 | 0.0 | 0.0 | 0.00 | 0.00 | 0.00 | 85 | 1016.7 |
| 20260502111004 | 25 | 24 | 0.0 | 0.0 | 0.00 | 0.00 | 0.00 | 85 | 1016.7 |
| 20260502110505 | 25 | 24 | 0.0 | 0.0 | 0.00 | 0.00 | 0.00 | 84 | 1016.7 |
| 20260502110008 | 25 | 24 | 0.0 | 0.0 | 0.00 | 0.00 | 0.00 | 84 | 1016.7 |
| 20260502105505 | 25 | 24 | 0.0 | 0.0 | 0.00 | 0.00 | 0.00 | 84 | 1016.7 |
| 20260502105004 | 25 | 24 | 0.0 | 0.0 | 0.00 | 0.00 | 0.00 | 83 | 1016.7 |
| 20260502104513 | 25 | 24 | 0.0 | 0.0 | 0.00 | 0.00 | 0.00 | 83 | 1016.7 |
| 20260502104007 | 25 | 24 | 0.0 | 0.0 | 0.00 | 0.00 | 0.00 | 83 | 1016.8 |
| 20260502103504 | 25 | 24 | 0.0 | 0.0 | 0.00 | 0.00 | 0.00 | 83 | 1016.9 |
| 20260502103010 | 25 | 24 | 0.0 | 0.0 | 0.00 | 0.00 | 0.00 | 82 | 1016.9 |
| 20260502102508 | 25 | 24 | 0.0 | 0.0 | 0.00 | 0.00 | 0.00 | 82 | 1016.9 |
| 20260502102004 | 25 | 24 | 0.0 | 0.0 | 0.00 | 0.00 | 0.00 | 82 | 1017.0 |
| 20260502101511 | 26 | 24 | 0.0 | 0.0 | 0.00 | 0.00 | 0.00 | 82 | 1017.1 |
| 20260502101011 | 26 | 24 | 0.0 | 0.0 | 0.00 | 0.00 | 0.00 | 82 | 1017.1 |
| 20260502100503 | 26 | 24 | 0.0 | 0.0 | 0.00 | 0.00 | 0.00 | 82 | 1017.1 |
| 20260502091516 | 26 | 24 | 0.0 | 0.0 | 0.00 | 0.00 | 0.00 | 81 | 1017.1 |
| 20260502091015 | 26 | 24 | 0.0 | 0.0 | 0.00 | 0.00 | 0.00 | 80 | 1017.1 |
| 20260502090504 | 26 | 24 | 0.0 | 0.0 | 0.00 | 0.00 | 0.00 | 80 | 1017.1 |
| 20260502071520 | 28 | 24 | 0.0 | 0.0 | 0.00 | 0.00 | 0.00 | 75 | 1017.5 |
| 20260502071004 | 28 | 24 | 0.0 | 0.0 | 0.00 | 0.00 | 0.00 | 75 | 1017.7 |
| 20260502070509 | 28 | 24 | 0.0 | 0.0 | 0.00 | 0.00 | 0.00 | 74 | 1017.7 |
| 20260502070021 | 28 | 24 | 0.0 | 0.0 | 0.00 | 0.00 | 0.00 | 74 | 1017.7 |
| 20260502065505 | 28 | 24 | 0.0 | 0.0 | 0.00 | 0.00 | 0.00 | 74 | 1017.8 |
| 20260502065004 | 28 | 24 | 0.0 | 0.0 | 0.00 | 0.00 | 0.00 | 74 | 1017.9 |
| 20260502064521 | 28 | 24 | 0.0 | 0.0 | 0.00 | 0.00 | 0.00 | 74 | 1017.9 |
| 20260502064011 | 28 | 24 | 0.0 | 0.0 | 0.00 | 0.00 | 0.00 | 74 | 1017.8 |
| 20260502063506 | 28 | 24 | 0.0 | 0.0 | 0.00 | 0.00 | 0.00 | 74 | 1017.9 |
| 20260502063022 | 29 | 24 | 0.0 | 0.0 | 0.00 | 0.00 | 0.00 | 73 | 1018.0 |
| 20260502062511 | 29 | 24 | 0.0 | 0.0 | 0.00 | 0.00 | 0.00 | 73 | 1018.0 |
| 20260502062009 | 29 | 24 | 0.0 | 0.0 | 0.00 | 0.00 | 0.00 | 73 | 1018.0 |
| 20260502061522 | 29 | 24 | 0.0 | 0.0 | 0.00 | 0.00 | 0.00 | 72 | 1018.0 |
| 20260502061007 | 29 | 24 | 0.0 | 0.0 | 0.00 | 0.00 | 0.00 | 72 | 1018.0 |
| 20260502060507 | 30 | 24 | 0.0 | 0.0 | 0.00 | 0.00 | 0.00 | 72 | 1018.0 |
| 20260502060024 | 30 | 24 | 0.0 | 0.0 | 0.00 | 0.00 | 0.00 | 72 | 1018.0 |
| 20260502055505 | 30 | 24 | 0.0 | 0.0 | 0.00 | 0.00 | 0.00 | 71 | 1018.0 |
| 20260502055008 | 30 | 24 | 0.0 | 0.0 | 0.00 | 0.00 | 0.00 | 70 | 1018.1 |
| 20260502054526 | 31 | 24 | 0.0 | 0.0 | 0.00 | 0.00 | 0.00 | 69 | 1018.1 |
| 20260502054006 | 31 | 24 | 0.0 | 0.0 | 0.00 | 0.00 | 0.00 | 68 | 1018.0 |
| 20260502053509 | 31 | 24 | 0.0 | 0.0 | 0.00 | 0.00 | 0.00 | 68 | 1018.1 |
| 20260502053022 | 31 | 24 | 0.0 | 0.0 | 0.00 | 0.00 | 0.00 | 68 | 1018.1 |
| 20260502052510 | 32 | 24 | 0.0 | 0.0 | 0.00 | 0.00 | 0.00 | 68 | 1017.9 |
| 20260502052011 | 32 | 24 | 0.0 | 0.0 | 0.00 | 0.00 | 0.00 | 67 | 1018.1 |
| 20260502051530 | 32 | 24 | 0.0 | 0.0 | 0.00 | 0.00 | 0.00 | 67 | 1018.1 |
| 20260502051006 | 32 | 24 | 0.0 | 0.0 | 0.00 | 0.00 | 0.00 | 67 | 1018.1 |
| 20260502050508 | 32 | 24 | 0.0 | 0.0 | 0.00 | 0.00 | 0.00 | 67 | 1018.1 |
| 20260502050026 | 32 | 24 | 0.0 | 0.0 | 0.00 | 0.00 | 0.00 | 66 | 1018.0 |
| 20260502045506 | 33 | 24 | 0.0 | 0.0 | 0.00 | 0.00 | 0.00 | 64 | 1018.1 |
| 20260502045013 | 33 | 24 | 0.0 | 0.0 | 0.00 | 0.00 | 0.00 | 65 | 1018.1 |
| 20260502044525 | 33 | 24 | 0.0 | 0.0 | 0.00 | 0.00 | 0.00 | 64 | 1018.1 |
| 20260502044011 | 33 | 24 | 0.0 | 0.0 | 0.00 | 0.00 | 0.00 | 64 | 1018.2 |
| 20260502043511 | 34 | 24 | 0.0 | 0.0 | 0.00 | 0.00 | 0.00 | 62 | 1018.1 |
| 20260502043026 | 34 | 24 | 0.0 | 0.0 | 0.00 | 0.00 | 0.00 | 61 | 1018.2 |
| 20260502042507 | 34 | 24 | 0.0 | 0.0 | 0.00 | 0.00 | 0.00 | 58 | 1018.2 |
| 20260502042011 | 34 | 24 | 0.0 | 2.0 | 0.00 | 0.00 | 0.00 | 58 | 1018.2 |
| 20260502041526 | 35 | 24 | 0.0 | 2.0 | 0.00 | 0.00 | 0.00 | 58 | 1018.3 |
| 20260502041009 | 35 | 24 | 0.0 | 2.0 | 0.00 | 0.00 | 0.00 | 57 | 1018.3 |
| 20260502040507 | 35 | 24 | 0.0 | 2.0 | 0.00 | 0.00 | 0.00 | 57 | 1018.3 |
| 20260502040026 | 35 | 24 | 0.0 | 2.0 | 0.00 | 0.00 | 0.00 | 56 | 1018.3 |
| 20260502035506 | 36 | 24 | 0.0 | 2.0 | 0.00 | 0.00 | 0.00 | 57 | 1018.4 |
| 20260502035010 | 36 | 24 | 0.0 | 0.0 | 0.00 | 0.00 | 0.00 | 57 | 1018.3 |
| 20260502034512 | 36 | 24 | 0.0 | 0.0 | 0.00 | 0.00 | 0.00 | 57 | 1018.4 |
| 20260502034003 | 36 | 24 | 0.0 | 1.0 | 0.00 | 0.00 | 0.00 | 56 | 1018.4 |
| 20260502033504 | 36 | 24 | 0.0 | 2.0 | 0.00 | 0.00 | 0.00 | 55 | 1018.3 |
| 20260502033013 | 37 | 24 | 1.0 | 3.0 | 0.00 | 0.00 | 0.00 | 54 | 1018.3 |
| 20260502032504 | 37 | 37 | 0.0 | 3.0 | 0.00 | 0.00 | 0.00 | 54 | 1018.2 |
| 20260502032004 | 37 | 56 | 1.0 | 3.0 | 0.00 | 0.00 | 0.00 | 54 | 1018.2 |
| 20260502031511 | 37 | 41 | 0.0 | 2.0 | 0.00 | 0.00 | 0.00 | 54 | 1018.2 |
| 20260502031004 | 38 | 58 | 0.0 | 2.0 | 0.00 | 0.00 | 0.00 | 54 | 1018.2 |
| 20260502030505 | 38 | 47 | 0.0 | 0.0 | 0.00 | 0.00 | 0.00 | 52 | 1018.3 |
| 20260502030002 | 38 | 47 | 0.0 | 0.0 | 0.00 | 0.00 | 0.00 | 51 | 1018.2 |
| 20260502025503 | 39 | 47 | 0.0 | 0.0 | 0.00 | 0.00 | 0.00 | 51 | 1018.3 |
| 20260502025003 | 39 | 47 | 0.0 | 2.0 | 0.00 | 0.00 | 0.00 | 49 | 1018.3 |
| 20260502024502 | 40 | 47 | 0.0 | 2.0 | 0.00 | 0.00 | 0.00 | 48 | 1018.2 |
| 20260502024003 | 40 | 47 | 0.0 | 2.0 | 0.00 | 0.00 | 0.00 | 47 | 1018.1 |
| 20260502023507 | 41 | 56 | 1.0 | 3.0 | 0.00 | 0.00 | 0.00 | 47 | 1018.1 |
| 20260502023004 | 41 | 40 | 1.0 | 3.0 | 0.00 | 0.00 | 0.00 | 47 | 1018.1 |
| 20260502022503 | 41 | 51 | 1.0 | 2.0 | 0.00 | 0.00 | 0.00 | 46 | 1018.0 |
| 20260502022010 | 42 | 56 | 1.0 | 2.0 | 0.00 | 0.00 | 0.00 | 44 | 1018.0 |
| 20260502021503 | 42 | 51 | 0.0 | 0.0 | 0.00 | 0.00 | 0.00 | 43 | 1018.0 |
| 20260502021004 | 43 | 51 | 0.0 | 0.0 | 0.00 | 0.00 | 0.00 | 42 | 1018.0 |
| 20260502020506 | 43 | 51 | 0.0 | 3.0 | 0.00 | 0.00 | 0.00 | 41 | 1017.9 |
| 20260502020003 | 44 | 51 | 0.0 | 3.0 | 0.00 | 0.00 | 0.00 | 40 | 1017.9 |
| 20260502015504 | 45 | 42 | 2.0 | 3.0 | 0.00 | 0.00 | 0.00 | 39 | 1017.9 |
| 20260502015006 | 45 | 56 | 1.0 | 4.0 | 0.00 | 0.00 | 0.00 | 38 | 1017.8 |
| 20260502014505 | 46 | 27 | 1.0 | 4.0 | 0.00 | 0.00 | 0.00 | 37 | 1017.8 |
| 20260502014003 | 46 | 49 | 1.0 | 4.0 | 0.00 | 0.00 | 0.00 | 35 | 1017.7 |
| 20260502013506 | 47 | 22 | 2.0 | 4.0 | 0.00 | 0.00 | 0.00 | 34 | 1017.8 |
| 20260502013004 | 47 | 25 | 1.0 | 4.0 | 0.00 | 0.00 | 0.00 | 34 | 1017.8 |
| 20260502012504 | 47 | 32 | 0.0 | 4.0 | 0.00 | 0.00 | 0.00 | 33 | 1017.7 |
| 20260502012005 | 48 | 26 | 2.0 | 5.0 | 0.00 | 0.00 | 0.00 | 33 | 1017.7 |
| 20260502011504 | 48 | 38 | 2.0 | 7.0 | 0.00 | 0.00 | 0.00 | 32 | 1017.5 |
| 20260502011003 | 48 | 38 | 3.0 | 7.0 | 0.00 | 0.00 | 0.00 | 32 | 1017.5 |
| 20260502010507 | 48 | 12 | 3.0 | 6.0 | 0.00 | 0.00 | 0.00 | 31 | 1017.5 |
| 20260502010003 | 48 | 351 | 3.0 | 6.0 | 0.00 | 0.00 | 0.00 | 32 | 1017.5 |
| 20260502005504 | 48 | 38 | 4.0 | 5.0 | 0.00 | 0.00 | 0.00 | 32 | 1017.5 |
| 20260502005006 | 49 | 52 | 2.0 | 6.0 | 0.00 | 0.00 | 0.00 | 31 | 1017.4 |
| 20260502004506 | 49 | 28 | 3.0 | 8.0 | 0.00 | 0.00 | 0.00 | 30 | 1017.3 |
| 20260502004003 | 49 | 28 | 3.0 | 8.0 | 0.00 | 0.00 | 0.00 | 30 | 1017.3 |
| 20260502003509 | 49 | 26 | 3.0 | 10.0 | 0.00 | 0.00 | 0.00 | 30 | 1017.5 |
| 20260502003004 | 50 | 22 | 5.0 | 10.0 | 0.00 | 0.00 | 0.00 | 30 | 1017.4 |
| 20260502002507 | 50 | 33 | 4.0 | 10.0 | 0.00 | 0.00 | 0.00 | 30 | 1017.4 |
| 20260502002009 | 50 | 39 | 4.0 | 10.0 | 0.00 | 0.00 | 0.00 | 29 | 1017.4 |
| 20260502001506 | 50 | 16 | 4.0 | 8.0 | 0.00 | 0.00 | 0.00 | 28 | 1017.3 |
| 20260502001003 | 50 | 59 | 5.0 | 8.0 | 0.00 | 0.00 | 0.00 | 29 | 1017.3 |
| 20260502000508 | 51 | 30 | 4.0 | 10.0 | 0.00 | 0.00 | 0.00 | 29 | 1017.3 |
| 20260502000007 | 51 | 16 | 4.0 | 10.0 | 0.00 | 0.00 | 0.00 | 28 | 1017.3 |
| 20260501235508 | 51 | 338 | 5.0 | 12.0 | 0.00 | 0.00 | 0.00 | 28 | 1017.3 |
| 20260501235009 | 51 | 40 | 5.0 | 12.0 | 0.00 | 0.00 | 0.00 | 28 | 1017.3 |
| 20260501234506 | 51 | 57 | 8.0 | 12.0 | 0.00 | 0.00 | 0.00 | 29 | 1017.2 |
| 20260501234006 | 51 | 56 | 6.0 | 12.0 | 0.00 | 0.00 | 0.00 | 28 | 1017.3 |
| 20260501233507 | 51 | 64 | 7.0 | 11.0 | 0.00 | 0.00 | 0.00 | 28 | 1017.2 |
| 20260501233004 | 51 | 11 | 5.0 | 10.0 | 0.00 | 0.00 | 0.00 | 28 | 1017.3 |
| 20260501232509 | 51 | 351 | 5.0 | 11.0 | 0.00 | 0.00 | 0.00 | 28 | 1017.3 |
| 20260501232009 | 52 | 36 | 7.0 | 11.0 | 0.00 | 0.00 | 0.00 | 27 | 1017.3 |
| 20260501231506 | 52 | 74 | 4.0 | 13.0 | 0.00 | 0.00 | 0.00 | 27 | 1017.3 |
| 20260501231007 | 52 | 330 | 6.0 | 13.0 | 0.00 | 0.00 | 0.00 | 28 | 1017.4 |
| 20260501230504 | 52 | 55 | 5.0 | 13.0 | 0.00 | 0.00 | 0.00 | 27 | 1017.4 |
| 20260501230006 | 52 | 24 | 3.0 | 13.0 | 0.00 | 0.00 | 0.00 | 27 | 1017.4 |
| 20260501225510 | 52 | 84 | 3.0 | 12.0 | 0.00 | 0.00 | 0.00 | 27 | 1017.4 |
| 20260501225005 | 52 | 41 | 5.0 | 11.0 | 0.00 | 0.00 | 0.00 | 27 | 1017.5 |
| 20260501224508 | 51 | 80 | 3.0 | 12.0 | 0.00 | 0.00 | 0.00 | 28 | 1017.6 |
| 20260501224006 | 51 | 351 | 7.0 | 12.0 | 0.00 | 0.00 | 0.00 | 28 | 1017.6 |
| 20260501223503 | 51 | 325 | 5.0 | 12.0 | 0.00 | 0.00 | 0.00 | 28 | 1017.5 |
| 20260501223011 | 51 | 338 | 4.0 | 14.0 | 0.00 | 0.00 | 0.00 | 28 | 1017.5 |
| 20260501222507 | 51 | 38 | 3.0 | 15.0 | 0.00 | 0.00 | 0.00 | 28 | 1017.5 |
| 20260501222003 | 51 | 318 | 6.0 | 15.0 | 0.00 | 0.00 | 0.00 | 27 | 1017.4 |
| 20260501221517 | 51 | 9 | 9.0 | 15.0 | 0.00 | 0.00 | 0.00 | 27 | 1017.5 |
| 20260501221014 | 52 | 13 | 9.0 | 15.0 | 0.00 | 0.00 | 0.00 | 26 | 1017.5 |
| 20260501220506 | 52 | 312 | 8.0 | 13.0 | 0.00 | 0.00 | 0.00 | 26 | 1017.4 |
| 20260501220014 | 52 | 336 | 6.0 | 12.0 | 0.00 | 0.00 | 0.00 | 27 | 1017.4 |
| 20260501215509 | 52 | 25 | 2.0 | 10.0 | 0.00 | 0.00 | 0.00 | 29 | 1017.4 |